Time;durP1;ratioP1;P1;durP2;ratioP2;P2;SDS_P1;SDS_P2;PMS_P1;PMS_P2;Temp;Humidity;BMP_temperature;BMP_pressure;BME280_temperature;BME280_humidity;BME280_pressure;Samples;Min_cycle;Max_cycle;Signal;HPM_P1;HPM_P2
2022/05/27 00:00:39;;;;;;;3.78;1.30;;;;;;;20.24;62.52;100595.78;5073900;28;20044;-77
2022/05/27 00:03:08;;;;;;;2.47;1.50;;;;;;;20.16;63.52;100590.25;5072956;28;20048;-77
2022/05/27 00:05:37;;;;;;;5.72;1.90;;;;;;;20.16;63.64;100592.94;5072209;28;20049;-78
2022/05/27 00:08:05;;;;;;;3.80;1.52;;;;;;;20.11;63.34;100588.00;5073227;28;20051;-78
2022/05/27 00:10:35;;;;;;;6.10;1.60;;;;;;;20.12;63.83;100586.13;5073869;28;20044;-78
2022/05/27 00:13:04;;;;;;;5.13;2.17;;;;;;;20.14;64.44;100581.41;5072581;28;20090;-79
2022/05/27 00:15:33;;;;;;;3.17;1.70;;;;;;;20.08;64.63;100579.31;5073563;28;20045;-78
2022/05/27 00:18:01;;;;;;;3.90;1.67;;;;;;;20.05;65.05;100580.44;5073664;28;20044;-78
2022/05/27 00:20:29;;;;;;;3.13;1.60;;;;;;;20.02;64.72;100573.47;5073486;28;20115;-78
2022/05/27 00:22:57;;;;;;;3.22;1.73;;;;;;;20.10;64.47;100564.63;5073652;28;20076;-78
2022/05/27 00:25:25;;;;;;;3.35;1.80;;;;;;;20.12;64.39;100567.19;5073452;28;20396;-78
2022/05/27 00:27:55;;;;;;;2.88;1.70;;;;;;;20.08;64.71;100569.34;5073592;28;20045;-78
2022/05/27 00:30:24;;;;;;;4.22;1.80;;;;;;;20.05;65.17;100566.03;5073396;28;20435;-78
2022/05/27 00:32:53;;;;;;;3.95;1.85;;;;;;;20.02;64.50;100562.63;5073215;28;20127;-81
2022/05/27 00:35:22;;;;;;;5.75;1.80;;;;;;;20.04;64.48;100569.75;5073184;28;20102;-80
2022/05/27 00:37:50;;;;;;;3.38;1.65;;;;;;;20.22;64.24;100557.19;5073535;28;20048;-81
2022/05/27 00:40:20;;;;;;;3.38;1.63;;;;;;;20.23;64.03;100558.88;5073294;28;20050;-80
2022/05/27 00:42:48;;;;;;;4.05;1.65;;;;;;;20.14;64.70;100560.59;5073365;28;20421;-79
2022/05/27 00:45:20;;;;;;;4.10;1.80;;;;;;;20.10;65.23;100561.06;5072015;28;20056;-80
2022/05/27 00:47:52;;;;;;;2.13;1.60;;;;;;;20.11;65.82;100565.47;5073183;28;20068;-79
2022/05/27 00:50:25;;;;;;;2.88;1.80;;;;;;;20.03;66.22;100560.78;5073313;28;20037;-79
2022/05/27 00:52:54;;;;;;;3.78;1.80;;;;;;;19.93;66.77;100559.94;5073030;28;20119;-79
2022/05/27 00:55:27;;;;;;;2.70;1.60;;;;;;;20.05;66.14;100561.47;5073280;28;20056;-79
2022/05/27 00:58:10;;;;;;;;;;;;;;;19.89;66.75;100561.25;5073979;28;20127;-80
2022/05/27 01:00:40;;;;;;;3.85;1.73;;;;;;;20.04;65.87;100564.34;5073037;28;19924;-80
2022/05/27 01:03:13;;;;;;;3.53;1.58;;;;;;;19.90;66.28;100560.25;5071999;28;20417;-79
2022/05/27 01:05:44;;;;;;;4.25;1.63;;;;;;;19.92;66.52;100559.09;5073057;28;20040;-79
2022/05/27 01:08:16;;;;;;;3.58;1.67;;;;;;;19.83;67.30;100559.09;5073171;28;20115;-79
2022/05/27 01:10:56;;;;;;;2.35;1.35;;;;;;;19.81;67.12;100561.97;5073264;28;20046;-78
2022/05/27 01:13:41;;;;;;;3.72;1.90;;;;;;;19.86;67.15;100556.94;5072888;28;20036;-81
2022/05/27 01:16:26;;;;;;;3.22;1.60;;;;;;;19.81;66.18;100558.41;5073119;28;20040;-80
2022/05/27 01:22:11;;;;;;;5.67;1.93;;;;;;;19.83;65.53;100557.25;5077362;28;20044;-80
2022/05/27 01:25:05;;;;;;;6.00;1.52;;;;;;;19.81;65.55;100558.41;5076809;28;20508;-79
2022/05/27 01:28:07;;;;;;;4.53;1.63;;;;;;;19.75;65.50;100549.00;5076752;28;20124;-74
2022/05/27 01:30:41;;;;;;;3.03;1.65;;;;;;;19.72;66.90;100560.13;5076833;28;20394;-82
2022/05/27 01:33:24;;;;;;;5.40;1.80;;;;;;;19.75;66.89;100549.00;5076886;28;20044;-77
2022/05/27 01:36:02;;;;;;;3.07;1.60;;;;;;;19.68;66.50;100548.69;5076910;28;20398;-80
2022/05/27 01:38:38;;;;;;;4.20;1.65;;;;;;;19.61;67.39;100549.44;5076621;28;20041;-80
2022/05/27 01:41:10;;;;;;;4.03;1.40;;;;;;;19.62;66.18;100540.31;5076640;28;20044;-83
2022/05/27 01:43:42;;;;;;;3.27;1.60;;;;;;;19.56;67.07;100544.44;5076244;28;20087;-78
2022/05/27 01:46:16;;;;;;;3.15;1.33;;;;;;;19.55;67.41;100549.97;5076300;28;20067;-76
2022/05/27 01:48:55;;;;;;;4.72;1.40;;;;;;;19.50;67.02;100544.16;5076079;28;20041;-77
2022/05/27 01:51:29;;;;;;;4.70;1.70;;;;;;;19.67;66.33;100547.00;5076268;28;20037;-78
2022/05/27 01:54:03;;;;;;;2.45;1.35;;;;;;;19.82;65.58;100544.72;5076249;28;20056;-77
2022/05/27 01:56:38;;;;;;;5.18;1.60;;;;;;;19.79;65.05;100536.03;5076178;28;20094;-78
2022/05/27 01:59:12;;;;;;;3.30;1.60;;;;;;;19.64;66.05;100535.63;5076479;28;20047;-78
2022/05/27 02:01:48;;;;;;;4.88;1.35;;;;;;;19.45;66.76;100534.59;5076033;28;20048;-86
2022/05/27 02:04:21;;;;;;;5.22;1.70;;;;;;;19.23;68.61;100536.72;5076337;28;20056;-76
2022/05/27 02:06:54;;;;;;;3.15;1.60;;;;;;;19.06;69.70;100551.78;5076388;28;20090;-76
2022/05/27 02:09:27;;;;;;;2.78;1.40;;;;;;;19.01;70.36;100540.53;5075999;28;20068;-76
2022/05/27 02:12:02;;;;;;;4.78;1.52;;;;;;;19.09;69.49;100541.53;5076102;28;20485;-76
2022/05/27 02:14:40;;;;;;;4.50;1.77;;;;;;;19.25;68.34;100548.25;5075802;28;20076;-76
2022/05/27 02:17:12;;;;;;;3.58;1.70;;;;;;;19.22;68.67;100546.69;5075815;28;20379;-76
2022/05/27 02:19:48;;;;;;;4.97;1.83;;;;;;;19.21;68.30;100552.25;5075952;28;20052;-79
2022/05/27 02:22:19;;;;;;;2.67;1.60;;;;;;;18.95;69.82;100543.78;5074706;28;20123;-79
2022/05/27 02:24:53;;;;;;;3.63;1.60;;;;;;;18.73;71.84;100548.44;5075854;28;20048;-79
2022/05/27 02:27:27;;;;;;;4.40;1.77;;;;;;;18.57;73.35;100551.63;5075870;28;20045;-80
2022/05/27 02:30:00;;;;;;;4.00;1.63;;;;;;;18.60;73.81;100551.31;5075984;28;20041;-78
2022/05/27 02:32:35;;;;;;;3.63;1.70;;;;;;;18.55;73.85;100547.34;5075019;28;20500;-79
2022/05/27 02:35:08;;;;;;;4.35;1.48;;;;;;;18.67;72.04;100546.28;5075445;28;20047;-78
2022/05/27 02:37:40;;;;;;;3.28;1.50;;;;;;;18.90;69.77;100541.50;5075474;28;20054;-78
2022/05/27 02:40:13;;;;;;;2.85;1.60;;;;;;;18.94;69.37;100547.50;5075985;28;20116;-78
2022/05/27 02:42:50;;;;;;;4.72;1.40;;;;;;;18.71;70.62;100542.28;5075545;28;20478;-78
2022/05/27 02:45:27;;;;;;;4.30;1.60;;;;;;;18.76;70.28;100540.06;5075247;28;20052;-74
2022/05/27 02:48:09;;;;;;;4.93;1.85;;;;;;;18.78;70.16;100540.75;5075267;28;20044;-74
2022/05/27 02:50:43;;;;;;;3.88;1.60;;;;;;;18.70;71.27;100540.59;5074016;28;20102;-74
2022/05/27 02:53:21;;;;;;;4.07;1.83;;;;;;;18.71;71.47;100545.00;5075489;28;20090;-75
2022/05/27 02:56:04;;;;;;;4.78;1.65;;;;;;;18.67;71.83;100540.88;5075598;28;20088;-80
2022/05/27 02:58:32;;;;;;;3.83;1.70;;;;;;;18.54;73.01;100543.78;5073902;28;20060;-79
2022/05/27 03:01:00;;;;;;;4.43;1.80;;;;;;;18.46;73.22;100545.47;5075260;28;20056;-80
2022/05/27 03:03:30;;;;;;;3.22;1.58;;;;;;;18.41;74.05;100550.41;5073586;28;20132;-81
2022/05/27 03:06:12;;;;;;;3.78;1.73;;;;;;;18.44;73.76;100545.59;5074762;28;20045;-80
2022/05/27 03:08:57;;;;;;;6.70;2.03;;;;;;;18.46;73.98;100553.56;5074318;28;20094;-76
2022/05/27 03:11:32;;;;;;;3.85;1.90;;;;;;;18.36;74.80;100552.66;5073800;28;20469;-79
2022/05/27 03:14:21;;;;;;;4.28;1.80;;;;;;;18.41;74.64;100561.19;5074175;28;20067;-82
2022/05/27 03:17:06;;;;;;;4.45;2.20;;;;;;;18.30;75.97;100560.31;5073783;28;20098;-82
2022/05/27 03:19:53;;;;;;;4.80;1.85;;;;;;;18.29;76.93;100555.03;5074523;28;20474;-82
2022/05/27 03:22:33;;;;;;;2.92;1.90;;;;;;;18.24;77.59;100558.16;5074467;28;20098;-82
2022/05/27 03:25:13;;;;;;;3.45;1.70;;;;;;;18.34;77.51;100558.19;5074812;28;20123;-82
2022/05/27 03:27:47;;;;;;;5.22;2.42;;;;;;;18.43;76.84;100560.09;5074599;28;20036;-81
2022/05/27 03:30:17;;;;;;;;;;;;;;;18.63;75.84;100561.03;5075191;28;20045;-81
2022/05/27 03:32:50;;;;;;;4.63;1.95;;;;;;;18.62;75.49;100564.69;5074109;28;20019;-79
2022/05/27 03:35:27;;;;;;;4.63;2.00;;;;;;;18.75;74.90;100565.38;5074651;28;20044;-78
2022/05/27 03:38:02;;;;;;;4.93;2.10;;;;;;;19.21;72.66;100563.06;5074617;28;20039;-79
2022/05/27 03:40:37;;;;;;;4.28;1.92;;;;;;;19.76;69.27;100568.78;5074522;28;20533;-79
2022/05/27 03:43:05;;;;;;;4.32;1.77;;;;;;;20.31;66.82;100569.84;5073577;28;20041;-81
2022/05/27 03:45:48;;;;;;;4.07;1.90;;;;;;;21.03;62.83;100563.69;5073963;28;20482;-80
2022/05/27 03:48:17;;;;;;;3.42;1.70;;;;;;;21.44;61.57;100564.16;5073245;28;20055;-80
2022/05/27 03:50:49;;;;;;;6.05;2.30;;;;;;;22.39;57.19;100563.41;5073703;28;20051;-80
2022/05/27 03:53:18;;;;;;;3.35;1.65;;;;;;;22.72;55.73;100564.41;5074355;28;20047;-79
2022/05/27 03:55:46;;;;;;;6.63;2.10;;;;;;;21.82;57.17;100560.25;5073961;28;20136;-79
2022/05/27 03:58:16;;;;;;;5.55;2.00;;;;;;;22.83;54.15;100569.56;5074160;28;20127;-80
2022/05/27 04:00:45;;;;;;;3.70;1.70;;;;;;;23.73;51.52;100558.94;5073913;28;20044;-79
2022/05/27 04:03:13;;;;;;;3.58;1.70;;;;;;;23.16;52.02;100566.97;5074021;28;20036;-81
2022/05/27 04:05:42;;;;;;;4.75;1.90;;;;;;;24.35;48.45;100556.53;5072569;28;20124;-83
2022/05/27 04:08:11;;;;;;;3.33;1.90;;;;;;;24.37;48.34;100559.94;5073518;28;20448;-83
2022/05/27 04:10:40;;;;;;;3.50;1.52;;;;;;;25.53;44.70;100549.16;5073835;28;20132;-82
2022/05/27 04:13:08;;;;;;;4.75;1.70;;;;;;;25.40;45.19;100552.50;5073905;28;20424;-83
2022/05/27 04:15:38;;;;;;;5.28;1.65;;;;;;;25.57;44.51;100558.66;5073253;28;20047;-83
2022/05/27 04:18:07;;;;;;;5.63;1.88;;;;;;;25.81;43.35;100554.09;5073757;28;20478;-83
2022/05/27 04:20:35;;;;;;;3.97;1.55;;;;;;;24.13;47.42;100555.34;5073348;28;20047;-83
2022/05/27 04:23:03;;;;;;;4.28;1.45;;;;;;;25.13;44.68;100552.16;5073689;28;20045;-83
2022/05/27 04:25:33;;;;;;;3.08;1.80;;;;;;;25.75;43.68;100554.81;5072959;28;20511;-81
2022/05/27 04:28:01;;;;;;;4.32;1.95;;;;;;;26.37;42.71;100562.78;5073324;28;20048;-83
2022/05/27 04:30:29;;;;;;;3.78;1.88;;;;;;;26.70;41.68;100550.44;5073492;28;20036;-73
2022/05/27 04:32:58;;;;;;;4.18;1.50;;;;;;;26.86;40.55;100556.75;5073245;28;20045;-74
2022/05/27 04:35:26;;;;;;;4.38;1.60;;;;;;;27.41;39.29;100552.56;5073393;28;20124;-76
2022/05/27 04:37:54;;;;;;;5.05;1.77;;;;;;;27.37;38.46;100552.97;5072864;28;20055;-76
2022/05/27 04:40:22;;;;;;;3.13;1.50;;;;;;;26.21;41.04;100548.22;5073367;28;20041;-76
2022/05/27 04:42:52;;;;;;;4.32;1.80;;;;;;;26.85;39.32;100544.13;5071708;28;20071;-77
2022/05/27 04:45:20;;;;;;;4.13;1.48;;;;;;;27.32;38.87;100550.00;5073261;28;20052;-77
2022/05/27 04:47:49;;;;;;;3.85;1.60;;;;;;;27.14;38.98;100544.09;5072848;28;20048;-75
2022/05/27 04:50:18;;;;;;;2.58;1.30;;;;;;;27.45;37.67;100545.69;5073217;28;20091;-76
2022/05/27 04:52:47;;;;;;;5.25;1.40;;;;;;;28.07;37.00;100539.53;5072954;28;20425;-76
2022/05/27 04:55:17;;;;;;;4.72;1.50;;;;;;;28.14;36.34;100541.28;5072738;28;20549;-76
2022/05/27 04:57:49;;;;;;;6.32;1.42;;;;;;;28.28;35.69;100544.09;5072715;28;20041;-76
2022/05/27 05:00:22;;;;;;;4.50;1.40;;;;;;;27.52;35.26;100546.63;5073362;28;20045;-79
2022/05/27 05:02:51;;;;;;;3.55;1.20;;;;;;;26.91;35.72;100543.34;5073092;28;20045;-76
2022/05/27 05:05:22;;;;;;;3.72;1.45;;;;;;;26.36;36.62;100545.53;5073063;28;20043;-75
2022/05/27 05:07:53;;;;;;;1.80;1.10;;;;;;;27.19;35.67;100541.59;5072815;28;20045;-74
2022/05/27 05:10:23;;;;;;;3.60;1.15;;;;;;;27.52;34.06;100544.72;5073169;28;20041;-75
2022/05/27 05:12:51;;;;;;;2.28;1.00;;;;;;;26.75;34.76;100545.25;5072625;28;20486;-76
2022/05/27 05:15:22;;;;;;;3.40;1.30;;;;;;;27.21;34.12;100555.09;5073081;28;20045;-76
2022/05/27 05:17:52;;;;;;;2.90;1.00;;;;;;;27.52;32.95;100546.63;5072836;28;20393;-76
2022/05/27 05:20:23;;;;;;;3.00;1.27;;;;;;;28.50;32.21;100552.09;5072907;28;20048;-75
2022/05/27 05:22:51;;;;;;;2.08;1.00;;;;;;;27.74;33.00;100551.06;5072203;28;20051;-77
2022/05/27 05:25:21;;;;;;;2.10;1.10;;;;;;;27.91;32.08;100547.00;5072826;28;20476;-76
2022/05/27 05:27:49;;;;;;;2.08;1.00;;;;;;;29.17;29.96;100546.97;5072536;28;20075;-77
2022/05/27 05:30:19;;;;;;;4.15;1.25;;;;;;;27.66;31.52;100542.97;5072763;28;20093;-77
2022/05/27 05:32:49;;;;;;;2.47;0.93;;;;;;;26.19;32.99;100549.47;5071495;28;20135;-74
2022/05/27 05:35:17;;;;;;;2.20;0.95;;;;;;;26.44;31.38;100552.81;5072706;28;20040;-79
2022/05/27 05:37:46;;;;;;;4.05;1.25;;;;;;;26.41;32.75;100553.19;5072454;28;20393;-79
2022/05/27 05:40:15;;;;;;;1.88;0.85;;;;;;;27.01;31.34;100544.72;5072405;28;20045;-78
2022/05/27 05:42:46;;;;;;;3.28;0.95;;;;;;;24.65;35.15;100548.59;5072367;28;20465;-77
2022/05/27 05:45:16;;;;;;;3.63;1.20;;;;;;;23.62;37.38;100556.53;5072819;28;20051;-77
2022/05/27 05:47:44;;;;;;;2.70;0.80;;;;;;;26.10;34.47;100553.31;5072530;28;20040;-78
2022/05/27 05:50:16;;;;;;;2.97;0.90;;;;;;;28.11;30.79;100546.31;5072255;28;20045;-78
2022/05/27 05:52:45;;;;;;;4.53;1.10;;;;;;;28.63;29.35;100539.50;5072078;28;20045;-75
2022/05/27 05:55:15;;;;;;;2.03;0.80;;;;;;;28.70;28.22;100540.38;5071253;28;20057;-79
2022/05/27 05:57:45;;;;;;;1.77;0.90;;;;;;;28.91;28.71;100543.06;5072126;28;20048;-80
2022/05/27 06:00:18;;;;;;;1.90;0.90;;;;;;;27.70;29.87;100543.41;5072784;28;20040;-76
2022/05/27 06:02:46;;;;;;;4.82;1.20;;;;;;;28.54;29.17;100551.69;5071953;28;20068;-75
2022/05/27 06:05:16;;;;;;;5.85;1.00;;;;;;;27.53;30.50;100548.31;5072434;28;20135;-75
2022/05/27 06:07:45;;;;;;;3.60;1.20;;;;;;;26.40;32.22;100546.88;5075470;28;20044;-74
2022/05/27 06:10:16;;;;;;;4.43;1.60;;;;;;;27.66;30.55;100542.97;5076137;28;20473;-74
2022/05/27 06:12:44;;;;;;;2.47;0.88;;;;;;;27.22;31.46;100546.72;5075811;28;20098;-75
2022/05/27 06:15:20;;;;;;;5.03;0.95;;;;;;;28.48;29.94;100548.72;5076067;28;20123;-73
2022/05/27 06:17:48;;;;;;;1.77;0.90;;;;;;;29.23;28.97;100543.38;5075189;28;20045;-73
2022/05/27 06:20:18;;;;;;;2.60;1.08;;;;;;;29.78;28.63;100539.47;5075503;28;20041;-71
2022/05/27 06:22:46;;;;;;;2.53;0.90;;;;;;;29.55;28.05;100539.91;5075441;28;20079;-72
2022/05/27 06:25:22;;;;;;;3.47;0.90;;;;;;;29.52;28.38;100545.78;5075566;28;20052;-74
2022/05/27 06:27:50;;;;;;;2.22;1.00;;;;;;;29.82;27.98;100539.91;5075004;28;20055;-73
2022/05/27 06:35:51;;;;;;;3.80;0.98;;;;;;;27.15;32.41;100534.84;5075482;28;20087;-77
2022/05/27 06:38:20;;;;;;;2.35;1.00;;;;;;;28.01;31.60;100529.38;5075594;28;20045;-74
2022/05/27 06:40:48;;;;;;;1.48;1.00;;;;;;;29.35;29.20;100523.34;5074731;28;20040;-75
2022/05/27 06:43:16;;;;;;;4.45;1.20;;;;;;;27.67;31.49;100530.97;5075423;28;20047;-75
2022/05/27 06:45:45;;;;;;;2.53;1.20;;;;;;;27.45;32.79;100529.25;5075101;28;20482;-78
2022/05/27 06:48:13;;;;;;;3.35;1.33;;;;;;;28.81;31.03;100531.56;5075175;28;20056;-77
2022/05/27 06:50:41;;;;;;;2.38;1.17;;;;;;;29.64;29.80;100526.81;5074037;28;20409;-75
2022/05/27 06:53:11;;;;;;;2.65;1.00;;;;;;;29.02;30.32;100530.63;5075258;28;20402;-75
2022/05/27 06:55:41;;;;;;;4.90;1.15;;;;;;;29.23;29.83;100524.13;5075473;28;20059;-77
2022/05/27 06:58:10;;;;;;;3.15;1.10;;;;;;;28.22;32.02;100516.44;5075196;28;20094;-77
2022/05/27 07:00:39;;;;;;;1.45;0.90;;;;;;;27.03;33.68;100514.50;5075359;28;20041;-77
2022/05/27 07:03:07;;;;;;;2.50;1.02;;;;;;;26.41;34.98;100523.94;5074907;28;20097;-77
2022/05/27 07:05:36;;;;;;;3.47;1.00;;;;;;;26.67;35.20;100517.16;5075030;28;20048;-77
2022/05/27 07:08:06;;;;;;;2.38;1.13;;;;;;;25.21;36.47;100525.66;5074768;28;20059;-77
2022/05/27 07:10:36;;;;;;;4.75;1.00;;;;;;;25.58;36.38;100524.88;5075125;28;20401;-77
2022/05/27 07:13:09;;;;;;;3.08;1.00;;;;;;;24.49;38.44;100512.16;5074855;28;20045;-77
2022/05/27 07:15:37;;;;;;;1.70;0.82;;;;;;;24.51;38.64;100510.13;5074654;28;20383;-77
2022/05/27 07:18:08;;;;;;;3.30;1.08;;;;;;;24.09;38.75;100504.94;5073905;28;20044;-77
2022/05/27 07:20:37;;;;;;;3.10;1.00;;;;;;;24.33;38.87;100505.94;5073297;28;20500;-77
2022/05/27 07:23:05;;;;;;;2.25;1.00;;;;;;;23.56;40.60;100506.31;5074521;28;20047;-77
2022/05/27 07:25:35;;;;;;;2.42;1.00;;;;;;;24.02;40.26;100505.78;5073306;28;20056;-77
2022/05/27 07:28:08;;;;;;;2.72;1.10;;;;;;;23.82;39.97;100508.88;5073390;28;20083;-77
2022/05/27 07:30:37;;;;;;;1.90;0.88;;;;;;;23.84;39.87;100493.25;5074287;28;20545;-76
2022/05/27 07:33:06;;;;;;;4.38;1.17;;;;;;;23.69;40.25;100494.94;5074310;28;20127;-77
2022/05/27 07:35:34;;;;;;;3.38;1.00;;;;;;;23.90;39.72;100503.44;5073472;28;20052;-77
2022/05/27 07:38:02;;;;;;;6.13;1.20;;;;;;;24.01;40.38;100498.63;5074164;28;20082;-77
2022/05/27 07:40:31;;;;;;;3.80;0.80;;;;;;;23.50;41.17;100498.84;5074513;28;20124;-77
2022/05/27 07:43:00;;;;;;;2.10;1.10;;;;;;;23.96;40.57;100507.34;5073776;28;20045;-77
2022/05/27 07:45:29;;;;;;;2.25;1.08;;;;;;;24.01;40.38;100496.75;5072979;28;20097;-76
2022/05/27 07:48:00;;;;;;;1.67;0.90;;;;;;;23.74;41.05;100495.31;5074088;28;20044;-77
2022/05/27 07:50:29;;;;;;;2.28;0.93;;;;;;;23.77;41.00;100494.09;5074289;28;20041;-77
2022/05/27 07:52:57;;;;;;;3.42;1.00;;;;;;;23.61;41.47;100505.84;5073537;28;20050;-78
2022/05/27 07:55:26;;;;;;;1.92;0.80;;;;;;;23.63;41.67;100503.78;5073703;28;20056;-76
2022/05/27 07:57:54;;;;;;;4.43;1.10;;;;;;;24.16;41.31;100489.59;5073658;28;20056;-76
2022/05/27 08:00:29;;;;;;;4.28;1.13;;;;;;;24.47;40.20;100481.50;5073992;28;20041;-77
2022/05/27 08:02:57;;;;;;;1.85;1.00;;;;;;;24.39;40.24;100488.88;5073976;28;20449;-77
2022/05/27 08:05:28;;;;;;;1.90;0.77;;;;;;;23.91;41.18;100486.06;5074319;28;20040;-77
2022/05/27 08:07:58;;;;;;;2.80;0.88;;;;;;;23.85;41.14;100494.09;5073664;28;20052;-77
2022/05/27 08:10:29;;;;;;;2.35;1.10;;;;;;;23.69;40.21;100482.19;5073935;28;20462;-77
2022/05/27 08:12:58;;;;;;;4.60;0.95;;;;;;;23.83;40.50;100488.78;5073523;28;20047;-78
2022/05/27 08:15:28;;;;;;;2.22;1.20;;;;;;;23.89;40.33;100492.72;5073574;28;20048;-77
2022/05/27 08:17:57;;;;;;;4.55;1.00;;;;;;;23.86;41.01;100476.72;5073407;28;20051;-78
2022/05/27 08:20:31;;;;;;;2.53;1.20;;;;;;;23.88;40.44;100494.59;5073569;28;20076;-77
2022/05/27 08:23:00;;;;;;;3.38;1.25;;;;;;;23.99;41.12;100483.31;5073074;28;20044;-77
2022/05/27 08:25:30;;;;;;;2.42;0.95;;;;;;;24.00;40.35;100478.72;5073668;28;20068;-77
2022/05/27 08:27:58;;;;;;;3.10;1.10;;;;;;;24.16;41.10;100486.03;5073071;28;20047;-77
2022/05/27 08:30:30;;;;;;;1.75;0.95;;;;;;;24.10;41.15;100486.69;5071696;28;20051;-77
2022/05/27 08:32:59;;;;;;;3.60;1.20;;;;;;;24.26;41.10;100473.03;5073387;28;20207;-76
2022/05/27 08:38:18;;;;;;;3.40;1.08;;;;;;;24.35;40.71;100466.56;5073252;28;20044;-76
2022/05/27 08:41:30;;;;;;;2.95;1.13;;;;;;;24.56;40.54;100463.22;5073537;28;20040;-75
2022/05/27 08:44:34;;;;;;;3.95;1.15;;;;;;;24.49;40.71;100463.09;5067064;28;20452;-77
2022/05/27 08:47:14;;;;;;;4.47;1.27;;;;;;;24.84;41.03;100460.88;5051342;28;20049;-77
2022/05/27 08:49:48;;;;;;;4.18;1.27;;;;;;;24.86;40.40;100458.81;5073083;28;20115;-77
2022/05/27 08:52:22;;;;;;;3.60;1.35;;;;;;;24.89;39.80;100457.59;5072963;28;20402;-77
2022/05/27 08:54:55;;;;;;;1.83;1.00;;;;;;;24.86;39.66;100441.59;5073470;28;20060;-77
2022/05/27 09:00:15;;;;;;;2.25;1.08;;;;;;;24.71;40.15;100436.91;5072957;28;20054;-77
2022/05/27 09:02:48;;;;;;;;;;;;;;;24.81;40.33;100433.97;5073508;28;20068;-77
2022/05/27 09:05:22;;;;;;;2.25;1.00;;;;;;;24.95;38.92;100425.00;5072960;28;20396;-77
2022/05/27 09:07:57;;;;;;;3.25;1.17;;;;;;;24.61;39.12;100429.97;5072495;28;20159;-77
2022/05/27 09:10:35;;;;;;;3.53;1.15;;;;;;;24.84;39.50;100428.97;5072824;28;20052;-78
2022/05/27 09:13:19;;;;;;;4.03;1.20;;;;;;;24.92;39.44;100413.59;5072874;28;20051;-77
2022/05/27 09:15:54;;;;;;;2.35;0.98;;;;;;;25.00;39.16;100425.31;5072922;28;20040;-77
2022/05/27 09:18:43;;;;;;;4.70;1.00;;;;;;;25.20;39.90;100428.44;5072721;28;20146;-76
2022/05/27 09:21:28;;;;;;;3.05;1.20;;;;;;;25.27;39.27;100414.88;5072620;28;20067;-76
2022/05/27 09:24:13;;;;;;;6.22;1.25;;;;;;;25.58;38.21;100409.31;5072848;28;20454;-76
2022/05/27 09:26:44;;;;;;;3.85;1.30;;;;;;;25.76;38.68;100408.97;5071753;28;20044;-76
2022/05/27 09:29:35;;;;;;;2.80;1.23;;;;;;;25.74;37.83;100409.16;5072407;28;20045;-76
2022/05/27 09:32:08;;;;;;;2.88;0.90;;;;;;;25.09;38.31;100418.78;5072343;28;20041;-76
2022/05/27 09:34:41;;;;;;;3.38;1.00;;;;;;;24.96;38.45;100407.59;5072934;28;20075;-76
2022/05/27 09:37:15;;;;;;;3.63;1.02;;;;;;;25.46;37.77;100400.72;5072652;28;20048;-76
2022/05/27 09:39:46;;;;;;;3.95;1.20;;;;;;;25.55;38.42;100407.78;5073367;28;20170;-75
2022/05/27 09:42:20;;;;;;;3.20;1.30;;;;;;;25.65;37.52;100388.41;5076468;28;20044;-77
2022/05/27 09:44:52;;;;;;;1.33;0.80;;;;;;;25.30;37.76;100409.06;5076553;28;20397;-77
2022/05/27 09:47:23;;;;;;;3.53;1.10;;;;;;;25.14;38.26;100401.84;5075895;28;20037;-78
2022/05/27 09:49:59;;;;;;;3.42;1.27;;;;;;;25.41;37.24;100384.06;5076473;28;20056;-76
2022/05/27 09:52:31;;;;;;;1.67;1.00;;;;;;;25.31;37.36;100391.66;5076242;28;20528;-78
2022/05/27 09:55:13;;;;;;;2.15;1.02;;;;;;;25.29;38.16;100399.19;5076083;28;20056;-78
2022/05/27 09:57:56;;;;;;;3.85;1.20;;;;;;;25.58;37.22;100393.78;5076178;28;20037;-77
2022/05/27 10:00:37;;;;;;;2.67;1.20;;;;;;;25.10;38.64;100385.00;5076486;28;20061;-76
2022/05/27 10:03:27;;;;;;;3.08;1.20;;;;;;;25.46;38.23;100386.22;5076097;28;20045;-76
2022/05/27 10:06:00;;;;;;;2.05;0.90;;;;;;;25.40;38.84;100385.09;5076501;28;20044;-77
2022/05/27 10:08:43;;;;;;;3.28;1.17;;;;;;;25.46;38.01;100370.66;5075969;28;20048;-77
2022/05/27 10:11:18;;;;;;;4.05;1.20;;;;;;;25.51;38.64;100381.91;5074570;28;20044;-76
2022/05/27 10:13:46;;;;;;;3.58;1.25;;;;;;;25.69;38.37;100382.41;5075906;28;20485;-76
2022/05/27 10:16:23;;;;;;;1.83;1.10;;;;;;;25.64;38.52;100365.72;5075596;28;20044;-78
2022/05/27 10:19:07;;;;;;;2.97;1.20;;;;;;;26.00;38.12;100365.00;5075907;28;20048;-78
2022/05/27 10:21:52;;;;;;;2.70;1.20;;;;;;;26.18;37.74;100349.06;5076060;28;20044;-78
2022/05/27 10:24:27;;;;;;;3.10;1.40;;;;;;;26.46;37.30;100343.75;5075649;28;20070;-78
2022/05/27 10:27:07;;;;;;;4.45;1.45;;;;;;;26.88;36.86;100341.22;5074624;28;20048;-78
2022/05/27 10:29:49;;;;;;;3.25;1.30;;;;;;;26.86;36.76;100333.22;5075411;28;20044;-78
2022/05/27 10:32:33;;;;;;;2.67;1.20;;;;;;;26.90;36.16;100331.75;5075449;28;20043;-78
2022/05/27 10:35:03;;;;;;;2.85;1.20;;;;;;;26.66;37.14;100326.69;5074249;28;20055;-81
2022/05/27 10:37:50;;;;;;;3.15;1.40;;;;;;;26.72;36.72;100324.00;5075764;28;20105;-78
2022/05/27 10:40:32;;;;;;;4.53;1.20;;;;;;;26.72;36.38;100323.16;5075712;28;20079;-78
2022/05/27 10:43:14;;;;;;;3.92;1.33;;;;;;;26.28;36.98;100318.66;5075538;28;20051;-78
2022/05/27 10:45:45;;;;;;;4.05;1.38;;;;;;;26.23;37.42;100302.81;5075646;28;20500;-78
2022/05/27 10:48:45;;;;;;;4.40;1.27;;;;;;;26.25;37.12;100299.94;5075304;28;20482;-78
2022/05/27 10:51:21;;;;;;;3.10;1.33;;;;;;;26.37;37.19;100309.34;5075017;28;20045;-78
2022/05/27 10:54:05;;;;;;;3.72;1.02;;;;;;;26.23;37.31;100294.63;5075441;28;20068;-77
2022/05/27 10:56:42;;;;;;;1.88;1.00;;;;;;;26.47;37.23;100268.84;5074385;28;20048;-78
2022/05/27 11:02:28;;;;;;;3.97;1.40;;;;;;;25.93;37.65;100287.53;5075074;28;20387;-78
2022/05/27 11:05:16;;;;;;;4.43;1.23;;;;;;;25.93;37.71;100279.34;5075224;28;20059;-77
2022/05/27 11:07:57;;;;;;;3.38;1.58;;;;;;;25.93;37.32;100273.88;5075019;28;20063;-77
2022/05/27 11:10:40;;;;;;;3.03;1.25;;;;;;;25.96;37.41;100273.47;5073263;28;20049;-78
2022/05/27 11:16:28;;;;;;;3.00;1.40;;;;;;;26.03;37.70;100277.16;5073418;28;20064;-78
2022/05/27 11:19:13;;;;;;;3.30;1.20;;;;;;;25.89;38.28;100259.75;5074852;28;20036;-77
2022/05/27 11:22:02;;;;;;;3.35;1.15;;;;;;;26.35;38.54;100256.72;5074502;28;20102;-78
2022/05/27 11:25:04;;;;;;;1.23;0.95;;;;;;;26.51;37.71;100250.16;5074000;28;20063;-77
2022/05/27 11:27:45;;;;;;;1.88;1.00;;;;;;;26.50;37.87;100251.19;5071782;28;20059;-78
2022/05/27 11:30:34;;;;;;;1.77;0.90;;;;;;;26.42;37.66;100243.97;5074492;28;20072;-78
2022/05/27 11:33:12;;;;;;;3.42;1.20;;;;;;;26.66;37.07;100240.00;5074705;28;20040;-77
2022/05/27 11:35:51;;;;;;;2.33;1.23;;;;;;;26.24;37.84;100229.84;5074360;28;20036;-78
2022/05/27 11:38:43;;;;;;;3.20;1.30;;;;;;;25.90;38.09;100244.22;5073962;28;20401;-78
2022/05/27 11:41:19;;;;;;;4.35;1.25;;;;;;;25.84;38.72;100236.78;5073903;28;20048;-78
2022/05/27 11:43:58;;;;;;;5.38;1.33;;;;;;;25.98;38.73;100218.66;5074047;28;20080;-77
2022/05/27 11:46:44;;;;;;;2.85;1.20;;;;;;;25.85;38.51;100217.44;5073830;28;20064;-77
2022/05/27 11:49:45;;;;;;;6.28;1.30;;;;;;;25.86;38.91;100215.56;5073976;28;20062;-78
2022/05/27 11:52:32;;;;;;;3.03;1.48;;;;;;;26.05;38.40;100214.94;5085117;28;20052;-77
2022/05/27 11:55:33;;;;;;;3.28;1.48;;;;;;;26.40;38.22;100210.50;5073985;28;20094;-78
2022/05/27 11:58:10;;;;;;;2.58;1.20;;;;;;;26.56;38.24;100198.47;5072540;28;20463;-78
2022/05/27 12:00:46;;;;;;;4.03;1.30;;;;;;;26.23;38.33;100188.00;5074111;28;20127;-77
2022/05/27 12:03:23;;;;;;;2.92;1.10;;;;;;;26.18;38.67;100187.75;5072862;28;20071;-77
2022/05/27 12:05:55;;;;;;;4.22;1.42;;;;;;;26.38;38.76;100181.66;5073622;28;20151;-78
2022/05/27 12:08:34;;;;;;;4.43;1.40;;;;;;;27.06;37.55;100182.84;5073351;28;20425;-78
2022/05/27 12:11:09;;;;;;;2.88;1.65;;;;;;;27.03;37.61;100175.91;5074084;28;20047;-78
2022/05/27 12:13:42;;;;;;;2.75;1.20;;;;;;;27.06;38.14;100169.16;5073881;28;20054;-77
2022/05/27 12:16:15;;;;;;;2.75;1.48;;;;;;;27.05;37.35;100178.44;5072163;28;20048;-78
2022/05/27 12:18:47;;;;;;;3.20;1.38;;;;;;;26.52;38.66;100169.78;5073697;28;20102;-77